Time;durP1;ratioP1;P1;durP2;ratioP2;P2;SDS_P1;SDS_P2;PMS_P1;PMS_P2;Temp;Humidity;BMP_temperature;BMP_pressure;BME280_temperature;BME280_humidity;BME280_pressure;Samples;Min_cycle;Max_cycle;Signal;HPM_P1;HPM_P2
2022/08/05 00:02:23;;;;;;;10.82;6.28;;;;;;;24.09;100.00;96216.00;5083881;28;20343;-79
2022/08/05 00:04:50;;;;;;;8.77;5.65;;;;;;;23.59;100.00;96233.94;5085440;28;20209;-78
2022/08/05 00:07:17;;;;;;;14.60;7.45;;;;;;;23.30;100.00;96262.78;5080306;28;20255;-80
2022/08/05 00:09:44;;;;;;;10.60;6.95;;;;;;;23.20;100.00;96301.56;5084267;28;20248;-79
2022/08/05 00:12:13;;;;;;;6.00;4.53;;;;;;;23.13;100.00;96358.22;5084850;28;20282;-79
2022/08/05 00:14:40;;;;;;;7.82;4.25;;;;;;;23.19;100.00;96392.78;5077632;28;20286;-80
2022/08/05 00:17:07;;;;;;;5.30;3.08;;;;;;;22.54;100.00;96374.56;5076344;28;20275;-78
2022/08/05 00:19:34;;;;;;;8.70;3.28;;;;;;;22.15;100.00;96366.78;5099218;28;20262;-80
2022/08/05 00:22:02;;;;;;;6.65;2.90;;;;;;;21.63;100.00;96380.88;5084833;28;20213;-78
2022/08/05 00:24:29;;;;;;;6.80;2.20;;;;;;;21.48;100.00;96401.19;5078497;28;20215;-77
2022/08/05 00:26:56;;;;;;;5.13;3.20;;;;;;;21.43;100.00;96420.50;5078265;28;20230;-77
2022/08/05 00:29:24;;;;;;;6.28;4.70;;;;;;;21.26;100.00;96428.44;5085374;28;20196;-78
2022/08/05 00:31:52;;;;;;;5.93;3.33;;;;;;;21.12;100.00;96437.34;5081898;28;20235;-79
2022/08/05 00:34:19;;;;;;;4.28;2.90;;;;;;;21.10;100.00;96452.47;5079942;28;20249;-79
2022/08/05 00:36:46;;;;;;;6.13;4.20;;;;;;;21.08;100.00;96466.53;5081213;28;20215;-79
2022/08/05 00:39:13;;;;;;;3.63;3.03;;;;;;;21.01;100.00;96468.78;5077545;28;20240;-79
2022/08/05 00:41:40;;;;;;;4.35;2.85;;;;;;;20.87;100.00;96465.13;5087657;28;20208;-79
2022/08/05 00:44:07;;;;;;;3.35;2.95;;;;;;;20.91;100.00;96463.44;5083139;28;20223;-79
2022/08/05 00:46:35;;;;;;;3.10;2.40;;;;;;;20.98;100.00;96466.66;5085107;28;20204;-79
2022/08/05 00:49:02;;;;;;;2.92;2.50;;;;;;;21.00;100.00;96467.19;5099422;28;20216;-80
2022/08/05 00:51:29;;;;;;;2.50;2.30;;;;;;;21.03;100.00;96472.06;5072837;28;20201;-80
2022/08/05 00:53:57;;;;;;;5.22;2.70;;;;;;;21.09;100.00;96494.81;5075929;28;20355;-81
2022/08/05 00:56:24;;;;;;;3.25;2.50;;;;;;;21.13;100.00;96504.91;5077961;28;20233;-80
2022/08/05 00:58:51;;;;;;;4.43;2.53;;;;;;;20.98;100.00;96520.75;5081336;28;20211;-80
2022/08/05 01:01:18;;;;;;;2.63;2.42;;;;;;;21.03;100.00;96526.16;5083152;28;20254;-81
2022/08/05 01:03:46;;;;;;;4.43;2.95;;;;;;;21.00;100.00;96524.84;5079280;28;20259;-80
2022/08/05 01:06:14;;;;;;;3.60;2.75;;;;;;;21.00;100.00;96524.00;5068720;28;20205;-80
2022/08/05 01:08:41;;;;;;;2.53;2.33;;;;;;;20.98;100.00;96518.00;5080923;28;20258;-79
2022/08/05 01:11:13;;;;;;;4.60;2.60;;;;;;;21.02;100.00;96522.59;5101024;28;20212;-80
2022/08/05 01:13:48;;;;;;;4.15;2.50;;;;;;;21.10;100.00;96507.41;5081898;28;20208;-79
2022/08/05 01:16:24;;;;;;;4.28;2.55;;;;;;;21.04;100.00;96495.66;5072903;28;20300;-80
2022/08/05 01:18:58;;;;;;;2.60;2.40;;;;;;;21.15;100.00;96502.69;5081029;28;20204;-80
2022/08/05 01:22:03;;;;;;;3.28;2.60;;;;;;;21.19;100.00;96513.09;5076310;28;20195;-80
2022/08/05 01:24:51;;;;;;;3.67;3.05;;;;;;;21.12;100.00;96497.75;5083208;28;20295;-81
2022/08/05 01:27:32;;;;;;;3.78;2.90;;;;;;;21.05;100.00;96502.78;5071888;28;20297;-80
2022/08/05 01:30:04;;;;;;;3.17;2.88;;;;;;;20.89;100.00;96478.56;5080221;28;20216;-81
2022/08/05 01:32:35;;;;;;;3.75;2.90;;;;;;;20.88;100.00;96485.97;5085105;28;20224;-80
2022/08/05 01:35:06;;;;;;;3.97;2.67;;;;;;;20.66;100.00;96482.97;5083092;28;20216;-81
2022/08/05 01:37:40;;;;;;;3.67;3.20;;;;;;;20.56;100.00;96469.34;5077509;28;20209;-80
2022/08/05 01:40:09;;;;;;;3.50;2.90;;;;;;;20.58;100.00;96464.38;5078722;28;20209;-80
2022/08/05 01:42:38;;;;;;;4.30;2.63;;;;;;;20.63;100.00;96469.81;5076611;28;20189;-81
2022/08/05 01:45:08;;;;;;;3.08;2.78;;;;;;;20.52;100.00;96457.31;5079569;28;20203;-80
2022/08/05 01:47:37;;;;;;;8.02;3.20;;;;;;;20.47;100.00;96447.22;5081407;28;20208;-80
2022/08/05 01:50:07;;;;;;;6.00;2.83;;;;;;;20.41;100.00;96431.13;5085021;28;20203;-80
2022/08/05 01:52:38;;;;;;;2.80;2.50;;;;;;;20.36;100.00;96435.53;5076897;28;20288;-80
2022/08/05 01:55:08;;;;;;;3.37;2.70;;;;;;;20.29;100.00;96420.50;5081433;28;20250;-77
2022/08/05 01:57:40;;;;;;;3.57;2.73;;;;;;;20.25;100.00;96400.22;5078086;28;20236;-79
2022/08/05 02:00:10;;;;;;;3.37;2.53;;;;;;;20.28;100.00;96400.47;5083791;28;20193;-77
2022/08/05 02:02:41;;;;;;;3.20;2.90;;;;;;;20.33;100.00;96400.41;5081301;28;20309;-78
2022/08/05 02:05:12;;;;;;;4.03;3.03;;;;;;;20.44;100.00;96411.31;5079050;28;20292;-78
2022/08/05 02:07:41;;;;;;;2.90;2.60;;;;;;;20.34;100.00;96404.81;5077880;28;20219;-77
2022/08/05 02:10:10;;;;;;;3.13;2.43;;;;;;;20.23;100.00;96386.84;5083469;28;20204;-77
2022/08/05 02:12:43;;;;;;;4.80;3.00;;;;;;;20.22;100.00;96390.69;5087080;28;20209;-77
2022/08/05 02:15:15;;;;;;;4.07;3.27;;;;;;;20.18;100.00;96378.66;5077172;28;20235;-78
2022/08/05 02:17:52;;;;;;;3.83;3.27;;;;;;;20.07;100.00;96360.69;5081732;28;20208;-77
2022/08/05 02:20:23;;;;;;;3.20;2.90;;;;;;;20.08;100.00;96359.56;5086018;28;20250;-78
2022/08/05 02:22:57;;;;;;;4.33;2.80;;;;;;;20.16;100.00;96347.19;5082836;28;20208;-78
2022/08/05 02:25:26;;;;;;;4.40;3.20;;;;;;;20.25;100.00;96345.41;5079861;28;20362;-78
2022/08/05 02:27:56;;;;;;;3.63;3.10;;;;;;;20.20;100.00;96348.22;5081393;28;20327;-77
2022/08/05 02:30:30;;;;;;;3.90;2.70;;;;;;;20.21;100.00;96328.72;5083310;28;20290;-77
2022/08/05 02:33:00;;;;;;;3.47;2.87;;;;;;;20.31;100.00;96316.81;5087770;28;20212;-79
2022/08/05 02:35:29;;;;;;;3.17;2.87;;;;;;;20.32;100.00;96308.31;5076294;28;20216;-78
2022/08/05 02:37:58;;;;;;;3.20;2.70;;;;;;;20.25;100.00;96299.59;5073727;28;20205;-78
2022/08/05 02:40:26;;;;;;;3.23;2.80;;;;;;;20.21;100.00;96297.75;5083641;28;23897;-77
2022/08/05 02:42:55;;;;;;;3.37;2.90;;;;;;;20.21;100.00;96301.31;5081502;28;20197;-78
2022/08/05 02:45:25;;;;;;;3.63;2.73;;;;;;;20.17;100.00;96294.78;5083170;28;20226;-78
2022/08/05 02:47:54;;;;;;;2.93;2.63;;;;;;;20.15;100.00;96290.72;5082854;28;20205;-78
2022/08/05 02:50:23;;;;;;;4.37;2.73;;;;;;;20.20;100.00;96299.69;5080590;28;20201;-78
2022/08/05 02:52:52;;;;;;;3.97;2.30;;;;;;;20.33;100.00;96281.72;5077291;28;20204;-78
2022/08/05 02:55:20;;;;;;;2.90;2.60;;;;;;;20.33;100.00;96274.28;5083378;28;20294;-79
2022/08/05 02:57:49;;;;;;;2.50;2.30;;;;;;;20.37;100.00;96264.41;5082269;28;20232;-77
2022/08/05 03:00:17;;;;;;;2.27;2.07;;;;;;;20.42;100.00;96254.44;5077626;28;20205;-80
2022/08/05 03:02:48;;;;;;;2.50;2.30;;;;;;;20.46;100.00;96252.75;5084951;28;20201;-78
2022/08/05 03:05:16;;;;;;;2.97;2.20;;;;;;;20.41;100.00;96250.09;5075875;28;20236;-79
2022/08/05 03:07:44;;;;;;;3.27;2.33;;;;;;;20.48;100.00;96245.06;5073420;28;20286;-78
2022/08/05 03:10:11;;;;;;;3.57;2.40;;;;;;;20.50;100.00;96240.91;5081520;28;20232;-78
2022/08/05 03:12:40;;;;;;;2.80;2.40;;;;;;;20.52;100.00;96243.34;5073009;28;20289;-78
2022/08/05 03:15:09;;;;;;;2.50;2.30;;;;;;;20.57;100.00;96243.28;5080692;28;20274;-78
2022/08/05 03:17:37;;;;;;;2.23;2.03;;;;;;;20.56;100.00;96225.19;5071354;28;20210;-77
2022/08/05 03:20:06;;;;;;;2.20;2.00;;;;;;;20.58;100.00;96221.06;5098088;28;20203;-79
2022/08/05 03:22:33;;;;;;;3.27;2.10;;;;;;;20.56;100.00;96215.03;5078496;28;20213;-78
2022/08/05 03:25:01;;;;;;;4.00;2.30;;;;;;;20.44;100.00;96219.31;5081327;28;20216;-78
2022/08/05 03:27:29;;;;;;;2.80;2.30;;;;;;;20.42;100.00;96207.84;5075015;28;20240;-78
2022/08/05 03:29:57;;;;;;;4.80;3.20;;;;;;;20.39;100.00;96204.59;5083139;28;20200;-79
2022/08/05 03:32:25;;;;;;;3.40;2.30;;;;;;;20.43;100.00;96209.47;5083393;28;20204;-79
2022/08/05 03:34:52;;;;;;;2.47;1.73;;;;;;;20.44;100.00;96217.41;5086164;28;20235;-78
2022/08/05 03:37:21;;;;;;;2.00;1.80;;;;;;;20.45;100.00;96208.06;5085671;28;20257;-80
2022/08/05 03:39:59;;;;;;;4.43;2.00;;;;;;;20.43;100.00;96198.50;5079438;28;20205;-79
2022/08/05 03:42:26;;;;;;;1.92;1.80;;;;;;;20.38;100.00;96197.47;5083072;28;20205;-78
2022/08/05 03:44:53;;;;;;;3.20;1.80;;;;;;;20.28;100.00;96191.28;5088211;28;20207;-78
2022/08/05 03:47:20;;;;;;;2.50;1.75;;;;;;;20.29;100.00;96188.25;5086316;28;20207;-78
2022/08/05 03:49:47;;;;;;;4.67;2.17;;;;;;;20.26;100.00;96182.53;5085529;28;20205;-78
2022/08/05 03:52:24;;;;;;;5.28;2.00;;;;;;;20.27;100.00;96174.00;5084931;28;20269;-78
2022/08/05 03:54:56;;;;;;;2.87;2.07;;;;;;;20.25;100.00;96172.66;5081426;28;20245;-78
2022/08/05 03:57:28;;;;;;;2.70;2.00;;;;;;;20.24;100.00;96177.38;5085368;28;20240;-78
2022/08/05 04:00:00;;;;;;;2.33;2.10;;;;;;;20.20;100.00;96179.06;5077686;28;20205;-78
2022/08/05 04:02:32;;;;;;;2.20;1.90;;;;;;;20.19;100.00;96174.69;5085880;28;20197;-78
2022/08/05 04:05:00;;;;;;;2.20;2.00;;;;;;;20.32;100.00;96170.41;5083030;28;20303;-78
2022/08/05 04:07:29;;;;;;;4.70;3.40;;;;;;;20.28;100.00;96177.56;5074689;28;20204;-78
2022/08/05 04:09:56;;;;;;;2.20;2.00;;;;;;;20.27;100.00;96164.97;5081904;28;20288;-79
2022/08/05 04:12:23;;;;;;;3.20;2.33;;;;;;;20.30;100.00;96167.13;5083969;28;20205;-78
2022/08/05 04:14:51;;;;;;;2.33;1.90;;;;;;;20.36;100.00;96169.53;5088959;28;20221;-78
2022/08/05 04:17:18;;;;;;;4.35;1.95;;;;;;;20.52;100.00;96177.50;5082224;28;20197;-80
2022/08/05 04:19:47;;;;;;;2.33;1.73;;;;;;;20.49;100.00;96173.47;5093419;28;20204;-79
2022/08/05 04:22:15;;;;;;;2.83;1.80;;;;;;;20.51;100.00;96178.63;5085356;28;20258;-79
2022/08/05 04:24:44;;;;;;;1.90;1.70;;;;;;;20.49;100.00;96164.41;5081077;28;20239;-78
2022/08/05 04:27:13;;;;;;;2.22;2.00;;;;;;;20.46;100.00;96160.34;5081422;28;20295;-78
2022/08/05 04:29:40;;;;;;;1.88;1.77;;;;;;;20.50;100.00;96166.06;5099992;28;20212;-79
2022/08/05 04:32:08;;;;;;;3.17;1.98;;;;;;;20.39;100.00;96162.63;5083687;28;20196;-79
2022/08/05 04:34:36;;;;;;;2.47;2.03;;;;;;;20.41;100.00;96165.09;5081903;28;20201;-78
2022/08/05 04:37:04;;;;;;;2.97;2.10;;;;;;;20.55;100.00;96163.22;5078197;28;20244;-77
2022/08/05 04:39:32;;;;;;;2.22;1.75;;;;;;;20.56;100.00;96165.66;5085898;28;20205;-78
2022/08/05 04:42:00;;;;;;;4.82;2.00;;;;;;;20.57;100.00;96167.31;5089584;28;20280;-79
2022/08/05 04:44:27;;;;;;;3.55;2.13;;;;;;;20.60;100.00;96168.63;5086452;28;20265;-79
2022/08/05 04:46:54;;;;;;;2.80;1.98;;;;;;;20.54;100.00;96172.56;5083683;28;20227;-78
2022/08/05 04:49:21;;;;;;;2.42;2.10;;;;;;;20.56;100.00;96175.81;5084794;28;20231;-80
2022/08/05 04:51:48;;;;;;;2.00;1.75;;;;;;;20.61;100.00;96167.50;5085348;28;20203;-78
2022/08/05 04:54:18;;;;;;;2.03;1.80;;;;;;;20.51;100.00;96170.41;5079606;28;20228;-79
2022/08/05 04:56:46;;;;;;;4.93;2.85;;;;;;;20.53;100.00;96169.00;5082865;28;20224;-78
2022/08/05 04:59:15;;;;;;;3.17;2.88;;;;;;;20.55;100.00;96176.94;5085414;28;20254;-79
2022/08/05 05:01:42;;;;;;;1.80;1.70;;;;;;;20.54;100.00;96172.56;5084713;28;20214;-78
2022/08/05 05:04:10;;;;;;;2.78;1.98;;;;;;;20.50;100.00;96175.06;5082177;28;20304;-79
2022/08/05 05:06:37;;;;;;;2.33;1.90;;;;;;;20.43;100.00;96169.16;5082740;28;20197;-80
2022/08/05 05:09:04;;;;;;;2.33;2.10;;;;;;;20.51;100.00;96176.69;5085530;28;20207;-79
2022/08/05 05:11:31;;;;;;;3.25;1.70;;;;;;;20.47;100.00;96174.88;5079153;28;20200;-79
2022/08/05 05:13:58;;;;;;;3.58;1.85;;;;;;;20.56;100.00;96176.63;5082681;28;20231;-79
2022/08/05 05:16:26;;;;;;;3.05;1.70;;;;;;;20.62;100.00;96160.91;5082645;28;20209;-78
2022/08/05 05:18:53;;;;;;;4.47;1.50;;;;;;;20.63;100.00;96166.09;5082720;28;20204;-79
2022/08/05 05:21:20;;;;;;;3.00;1.65;;;;;;;20.69;100.00;96166.81;5077915;28;20193;-80
2022/08/05 05:23:47;;;;;;;1.95;1.80;;;;;;;20.75;100.00;96157.41;5080882;28;20236;-78
2022/08/05 05:26:14;;;;;;;6.22;2.00;;;;;;;20.78;100.00;96154.88;5083974;28;20224;-78
2022/08/05 05:28:41;;;;;;;3.47;2.10;;;;;;;20.86;100.00;96142.41;5081714;28;20226;-79
2022/08/05 05:31:09;;;;;;;2.58;1.70;;;;;;;20.89;100.00;96146.47;5080312;28;20209;-79
2022/08/05 05:33:37;;;;;;;1.77;1.67;;;;;;;20.90;100.00;96139.88;5079690;28;20201;-78
2022/08/05 05:36:04;;;;;;;2.55;1.67;;;;;;;20.90;100.00;96137.94;5084055;28;20224;-77
2022/08/05 05:38:32;;;;;;;1.70;1.60;;;;;;;20.96;100.00;96142.22;5080076;28;20209;-76
2022/08/05 05:40:59;;;;;;;3.88;1.92;;;;;;;21.07;100.00;96149.19;5076948;28;20202;-77
2022/08/05 05:43:26;;;;;;;2.30;2.10;;;;;;;21.13;100.00;96145.22;5079182;28;20255;-77
2022/08/05 05:45:53;;;;;;;2.85;1.80;;;;;;;21.22;100.00;96150.03;5083442;28;20205;-77
2022/08/05 05:48:20;;;;;;;2.15;1.95;;;;;;;21.28;100.00;96155.13;5079510;28;20241;-77
2022/08/05 05:50:50;;;;;;;2.55;2.20;;;;;;;21.30;100.00;96157.56;5085585;28;20212;-77
2022/08/05 05:53:17;;;;;;;7.63;4.47;;;;;;;21.19;100.00;96156.13;5084810;28;20267;-77
2022/08/05 05:55:46;;;;;;;3.83;2.08;;;;;;;21.06;100.00;96161.28;5079285;28;20232;-77
2022/08/05 05:58:12;;;;;;;4.90;2.00;;;;;;;21.05;100.00;96148.66;5081986;28;20240;-77
2022/08/05 06:00:40;;;;;;;2.38;1.80;;;;;;;21.01;100.00;96153.09;5075858;28;20224;-79
2022/08/05 06:03:08;;;;;;;2.60;2.40;;;;;;;21.13;100.00;96161.69;5084615;28;20209;-77
2022/08/05 06:05:35;;;;;;;3.40;3.10;;;;;;;21.18;100.00;96154.53;5082641;28;20209;-76
2022/08/05 06:08:04;;;;;;;4.88;1.83;;;;;;;21.02;100.00;96162.97;5080679;28;20217;-76
2022/08/05 06:10:32;;;;;;;3.70;3.40;;;;;;;20.99;100.00;96151.78;5080590;28;20309;-77
2022/08/05 06:12:59;;;;;;;2.97;2.30;;;;;;;20.94;100.00;96144.44;5081183;28;20224;-78
2022/08/05 06:15:27;;;;;;;7.55;6.38;;;;;;;21.00;100.00;96147.94;5081025;28;20287;-79
2022/08/05 06:17:54;;;;;;;41.50;37.20;;;;;;;20.95;100.00;96153.50;5082422;28;20212;-77
2022/08/05 06:20:21;;;;;;;18.75;16.83;;;;;;;20.92;100.00;96143.97;5082971;28;20193;-76
2022/08/05 06:22:48;;;;;;;10.82;9.73;;;;;;;20.94;100.00;96141.69;5081525;28;20254;-77
2022/08/05 06:25:17;;;;;;;6.85;4.85;;;;;;;21.01;100.00;96149.56;5084141;28;20348;-77
2022/08/05 06:27:44;;;;;;;7.47;5.68;;;;;;;20.91;100.00;96144.25;5076639;28;20252;-77
2022/08/05 06:30:14;;;;;;;6.10;3.70;;;;;;;21.06;100.00;96153.03;5077397;28;20196;-77
2022/08/05 06:32:42;;;;;;;5.68;3.88;;;;;;;21.02;100.00;96141.00;5082625;28;20290;-77
2022/08/05 06:35:10;;;;;;;4.65;3.20;;;;;;;21.17;100.00;96153.69;5080470;28;20212;-76
2022/08/05 06:37:37;;;;;;;4.25;2.80;;;;;;;21.25;100.00;96157.69;5080538;28;20228;-77
2022/08/05 06:40:05;;;;;;;2.75;2.47;;;;;;;21.37;100.00;96152.50;5079961;28;20206;-77
2022/08/05 06:42:33;;;;;;;3.40;1.90;;;;;;;21.45;100.00;96155.34;5080075;28;20279;-77
2022/08/05 06:45:00;;;;;;;3.67;2.30;;;;;;;21.46;100.00;96150.66;5078929;28;20200;-76
2022/08/05 06:47:28;;;;;;;2.55;2.08;;;;;;;21.45;100.00;96147.09;5080220;28;20285;-77
2022/08/05 06:49:55;;;;;;;5.15;2.35;;;;;;;21.38;100.00;96154.13;5098575;28;20223;-78
2022/08/05 06:52:22;;;;;;;4.13;1.98;;;;;;;21.28;100.00;96157.06;5081266;28;20217;-77
2022/08/05 06:54:49;;;;;;;5.07;1.95;;;;;;;21.29;100.00;96155.94;5083723;28;20232;-77
2022/08/05 06:57:17;;;;;;;2.40;2.00;;;;;;;21.23;100.00;96162.66;5082355;28;20220;-77
2022/08/05 06:59:45;;;;;;;2.70;2.00;;;;;;;21.25;100.00;96157.69;5079182;28;20240;-77
2022/08/05 07:02:12;;;;;;;3.92;3.08;;;;;;;21.26;100.00;96154.63;5080711;28;20300;-77
2022/08/05 07:04:40;;;;;;;6.40;5.20;;;;;;;21.34;100.00;96164.09;5075582;28;20245;-76
2022/08/05 07:07:08;;;;;;;13.43;12.02;;;;;;;21.40;100.00;96168.38;5079759;28;20209;-77
2022/08/05 07:09:35;;;;;;;15.77;14.43;;;;;;;21.39;100.00;96167.56;5082458;28;20197;-77
2022/08/05 07:12:02;;;;;;;9.38;8.65;;;;;;;21.44;100.00;96155.66;5085863;28;20202;-80
2022/08/05 07:17:15;;;;;;;2.53;2.13;;;;;;;21.70;100.00;96169.69;5082320;28;20224;-78
2022/08/05 07:19:42;;;;;;;5.03;3.05;;;;;;;21.74;100.00;96177.06;5083880;28;20209;-79
2022/08/05 07:22:09;;;;;;;5.30;4.80;;;;;;;21.65;100.00;96181.63;5082544;28;20208;-78
2022/08/05 07:24:36;;;;;;;6.78;6.22;;;;;;;21.73;100.00;96189.16;5085949;28;20197;-79
2022/08/05 07:27:03;;;;;;;5.78;2.47;;;;;;;21.92;100.00;96191.00;5079478;28;20241;-78
2022/08/05 07:29:31;;;;;;;3.38;2.03;;;;;;;22.06;100.00;96186.31;5078946;28;20203;-80
2022/08/05 07:31:58;;;;;;;7.07;5.30;;;;;;;22.30;100.00;96189.63;5083048;28;20300;-79
2022/08/05 07:34:27;;;;;;;4.15;3.72;;;;;;;22.51;100.00;96199.09;5081153;28;20386;-80
2022/08/05 07:36:54;;;;;;;4.75;2.00;;;;;;;22.63;100.00;96199.34;5078380;28;20221;-81
2022/08/05 07:39:21;;;;;;;2.17;2.00;;;;;;;23.08;100.00;96204.91;5083626;28;20197;-80
2022/08/05 07:41:48;;;;;;;4.05;2.00;;;;;;;23.31;100.00;96206.50;5072894;28;20252;-80
2022/08/05 07:44:15;;;;;;;4.15;2.30;;;;;;;23.36;100.00;96202.84;5081786;28;20213;-80
2022/08/05 07:46:42;;;;;;;4.28;3.63;;;;;;;23.42;100.00;96211.75;5082989;28;20205;-81
2022/08/05 07:49:09;;;;;;;4.15;2.53;;;;;;;23.33;100.00;96201.50;5078652;28;20212;-80
2022/08/05 07:51:38;;;;;;;2.50;1.98;;;;;;;23.43;100.00;96202.38;5086201;28;20201;-81
2022/08/05 07:54:05;;;;;;;2.15;1.95;;;;;;;23.52;100.00;96201.31;5079759;28;20205;-80
2022/08/05 07:56:33;;;;;;;4.13;1.98;;;;;;;23.55;100.00;96205.41;5082804;28;20232;-80
2022/08/05 07:58:59;;;;;;;3.45;1.90;;;;;;;23.71;100.00;96206.63;5083006;28;20204;-80
2022/08/05 08:01:27;;;;;;;2.35;1.70;;;;;;;23.87;100.00;96202.31;5084042;28;20231;-81
2022/08/05 08:03:53;;;;;;;2.35;1.88;;;;;;;24.08;100.00;96203.34;5087739;28;20199;-81
2022/08/05 08:06:21;;;;;;;2.17;1.85;;;;;;;24.19;100.00;96192.81;5075785;28;20415;-81
2022/08/05 08:08:49;;;;;;;2.70;1.77;;;;;;;24.06;100.00;96193.78;5084851;28;20207;-80
2022/08/05 08:11:16;;;;;;;1.90;1.80;;;;;;;23.82;100.00;96205.19;5082654;28;20208;-80
2022/08/05 08:13:43;;;;;;;2.30;1.80;;;;;;;23.53;100.00;96199.38;5081642;28;20215;-81
2022/08/05 08:16:10;;;;;;;1.65;1.55;;;;;;;23.32;100.00;96190.78;5080295;28;20216;-80
2022/08/05 08:18:38;;;;;;;2.67;1.88;;;;;;;23.18;100.00;96201.91;5081308;28;20201;-81
2022/08/05 08:21:06;;;;;;;6.25;1.85;;;;;;;23.07;100.00;96197.78;5086983;28;20213;-81
2022/08/05 08:23:33;;;;;;;2.28;1.90;;;;;;;23.30;100.00;96199.41;5083224;28;20207;-81
2022/08/05 08:26:01;;;;;;;3.15;1.77;;;;;;;23.66;100.00;96201.22;5076394;28;20208;-81
2022/08/05 08:28:28;;;;;;;4.32;1.60;;;;;;;24.09;100.00;96204.16;5081199;28;20243;-81
2022/08/05 08:30:56;;;;;;;2.92;1.50;;;;;;;24.49;100.00;96207.69;5082752;28;20213;-80
2022/08/05 08:33:23;;;;;;;2.35;1.90;;;;;;;24.84;100.00;96203.81;5082937;28;20254;-81
2022/08/05 08:35:50;;;;;;;1.98;1.80;;;;;;;25.09;100.00;96212.47;5082214;28;20220;-80
2022/08/05 08:38:17;;;;;;;3.13;1.80;;;;;;;25.24;100.00;96207.25;5077543;28;20227;-81
2022/08/05 08:40:44;;;;;;;1.80;1.70;;;;;;;25.53;100.00;96206.50;5081107;28;20286;-80
2022/08/05 08:43:13;;;;;;;1.90;1.80;;;;;;;25.67;100.00;96216.59;5082868;28;20214;-81
2022/08/05 08:45:40;;;;;;;3.60;2.00;;;;;;;25.72;100.00;96216.41;5085972;28;20204;-80
2022/08/05 08:48:09;;;;;;;2.22;2.05;;;;;;;25.84;96.17;96214.59;5085650;28;20199;-81
2022/08/05 08:50:41;;;;;;;2.33;2.00;;;;;;;26.21;90.36;96218.47;5076874;28;20266;-81
2022/08/05 08:53:11;;;;;;;3.15;1.83;;;;;;;26.46;82.18;96210.41;5093731;28;20201;-80
2022/08/05 08:55:39;;;;;;;2.30;2.08;;;;;;;26.83;83.41;96211.44;5083630;28;20263;-80
2022/08/05 08:58:07;;;;;;;3.05;1.80;;;;;;;27.17;77.25;96211.19;5085059;28;20224;-80
2022/08/05 09:00:35;;;;;;;2.22;2.03;;;;;;;27.53;78.69;96209.72;5085854;28;20290;-79
2022/08/05 09:03:06;;;;;;;2.15;2.00;;;;;;;27.93;74.39;96221.03;5081833;28;20205;-79
2022/08/05 09:05:33;;;;;;;5.72;2.00;;;;;;;28.08;73.78;96223.13;5080337;28;20201;-80
2022/08/05 09:08:00;;;;;;;2.47;2.17;;;;;;;28.32;75.93;96217.63;5080573;28;20204;-80
2022/08/05 09:10:28;;;;;;;2.45;2.20;;;;;;;28.44;78.00;96223.16;5072018;28;20202;-80
2022/08/05 09:12:56;;;;;;;2.35;2.15;;;;;;;28.63;76.68;96216.22;5085061;28;20193;-80
2022/08/05 09:15:24;;;;;;;5.07;2.35;;;;;;;28.67;77.17;96206.81;5088555;28;20200;-80
2022/08/05 09:17:52;;;;;;;2.75;2.33;;;;;;;28.64;80.39;96212.28;5098060;28;20228;-80
2022/08/05 09:20:20;;;;;;;4.60;2.30;;;;;;;28.43;80.37;96212.41;5082521;28;20224;-79
2022/08/05 09:23:09;;;;;;;4.13;2.53;;;;;;;28.45;81.32;96216.47;5085422;28;20213;-80
2022/08/05 09:25:38;;;;;;;5.55;2.60;;;;;;;28.47;81.00;96211.38;5083335;28;20212;-80
2022/08/05 09:28:16;;;;;;;2.55;2.35;;;;;;;28.42;82.75;96221.88;5085583;28;20243;-80
2022/08/05 09:30:54;;;;;;;2.63;2.28;;;;;;;28.34;78.68;96208.94;5086594;28;20204;-80
2022/08/05 09:33:24;;;;;;;2.50;2.30;;;;;;;28.24;80.49;96213.00;5085797;28;20205;-80
2022/08/05 09:36:00;;;;;;;3.47;2.13;;;;;;;28.10;78.41;96212.50;5074731;28;20209;-80
2022/08/05 09:38:28;;;;;;;2.05;1.90;;;;;;;28.12;74.49;96207.41;5093588;28;20225;-80
2022/08/05 09:41:02;;;;;;;2.63;1.90;;;;;;;28.39;75.54;96203.16;5078298;28;20205;-80
2022/08/05 09:43:32;;;;;;;2.65;1.90;;;;;;;28.60;68.32;96204.63;5080620;28;20254;-81
2022/08/05 09:45:59;;;;;;;1.98;1.83;;;;;;;28.94;66.10;96194.16;5077997;28;20295;-80
2022/08/05 09:48:29;;;;;;;2.47;2.20;;;;;;;29.26;66.66;96201.47;5085948;28;20217;-81
2022/08/05 09:50:57;;;;;;;4.88;3.42;;;;;;;29.60;66.18;96199.28;5081243;28;20204;-81
2022/08/05 09:53:25;;;;;;;4.38;2.17;;;;;;;29.47;66.35;96183.78;5085741;28;20250;-80
2022/08/05 09:55:56;;;;;;;3.45;2.00;;;;;;;29.66;65.29;96190.31;5080044;28;20312;-81
2022/08/05 09:58:23;;;;;;;3.13;2.20;;;;;;;29.58;64.81;96190.47;5076510;28;20228;-80
2022/08/05 10:00:59;;;;;;;3.08;2.40;;;;;;;29.69;64.62;96197.09;5083256;28;20201;-80
2022/08/05 10:03:29;;;;;;;2.92;2.60;;;;;;;29.84;64.10;96190.78;5083757;28;20213;-81
2022/08/05 10:06:08;;;;;;;2.38;2.17;;;;;;;29.86;62.99;96184.84;5085025;28;20208;-80
2022/08/05 10:08:36;;;;;;;2.50;2.30;;;;;;;29.79;63.21;96185.44;5081895;28;20205;-81
2022/08/05 10:11:05;;;;;;;5.40;2.22;;;;;;;29.83;64.07;96185.56;5076652;28;20278;-82
2022/08/05 10:13:37;;;;;;;2.10;1.90;;;;;;;30.07;63.08;96179.84;5074407;28;20208;-81
2022/08/05 10:16:04;;;;;;;2.90;2.10;;;;;;;30.17;60.61;96178.50;5080989;28;20301;-80
2022/08/05 10:18:35;;;;;;;3.40;2.10;;;;;;;29.98;63.30;96185.59;5076418;28;20351;-80
2022/08/05 10:21:05;;;;;;;2.28;2.08;;;;;;;29.99;64.89;96181.63;5077402;28;20290;-81
2022/08/05 10:23:34;;;;;;;2.45;2.10;;;;;;;29.82;63.93;96173.63;5083610;28;20296;-81
2022/08/05 10:26:03;;;;;;;3.22;2.05;;;;;;;29.69;64.73;96185.97;5077579;28;20231;-81
2022/08/05 10:28:32;;;;;;;2.63;1.98;;;;;;;29.62;64.21;96183.00;5077660;28;20229;-80
2022/08/05 10:30:59;;;;;;;2.67;2.00;;;;;;;29.59;64.84;96169.81;5077261;28;20302;-81
2022/08/05 10:33:29;;;;;;;2.45;2.25;;;;;;;29.59;65.29;96172.59;5081620;28;20217;-81
2022/08/05 10:36:00;;;;;;;2.40;1.80;;;;;;;29.73;64.38;96170.19;5075627;28;20248;-80
2022/08/05 10:38:29;;;;;;;3.58;1.80;;;;;;;29.71;64.88;96173.31;5073746;28;20271;-81
2022/08/05 10:41:02;;;;;;;2.30;1.90;;;;;;;29.43;65.97;96166.22;5074042;28;20696;-80
2022/08/05 10:43:47;;;;;;;2.42;2.03;;;;;;;29.41;66.62;96174.09;5086471;28;20209;-80
2022/08/05 10:46:16;;;;;;;5.20;2.00;;;;;;;29.28;64.97;96174.13;5069033;28;20197;-81
2022/08/05 10:48:45;;;;;;;2.88;1.90;;;;;;;29.15;66.68;96167.00;5078487;28;20246;-80
2022/08/05 10:51:16;;;;;;;2.33;2.13;;;;;;;29.00;70.05;96167.75;5080774;28;20240;-80
2022/08/05 10:53:45;;;;;;;3.20;2.17;;;;;;;29.13;72.08;96163.75;5076850;28;20372;-81
2022/08/05 10:56:15;;;;;;;3.03;2.00;;;;;;;29.23;71.56;96154.09;5080781;28;20220;-81
2022/08/05 10:59:02;;;;;;;2.42;2.22;;;;;;;29.23;65.58;96157.69;5078459;28;20216;-81
2022/08/05 11:01:31;;;;;;;3.55;2.05;;;;;;;29.69;65.61;96158.16;5075982;28;20212;-80
2022/08/05 11:04:08;;;;;;;2.50;2.30;;;;;;;29.81;59.58;96155.28;5083068;28;20200;-80
2022/08/05 11:07:07;;;;;;;3.03;2.50;;;;;;;29.95;60.58;96149.28;5078013;28;20201;-81
2022/08/05 11:09:42;;;;;;;2.45;2.10;;;;;;;30.27;57.93;96158.47;5076741;28;20288;-80
2022/08/05 11:12:45;;;;;;;2.50;2.30;;;;;;;30.51;58.91;96152.69;5077043;28;20208;-81
2022/08/05 11:15:25;;;;;;;2.35;2.15;;;;;;;30.86;56.03;96154.63;5078474;28;20212;-81
2022/08/05 11:17:54;;;;;;;2.03;1.92;;;;;;;31.11;55.13;96150.41;5080106;28;20226;-80
2022/08/05 11:20:40;;;;;;;2.22;2.03;;;;;;;31.18;53.12;96156.94;5079799;28;20201;-81
2022/08/05 11:23:35;;;;;;;2.28;2.08;;;;;;;31.29;54.16;96150.78;5076890;28;20305;-81
2022/08/05 11:26:08;;;;;;;2.40;2.20;;;;;;;31.30;55.02;96139.25;5083227;28;20204;-81
2022/08/05 11:28:46;;;;;;;2.40;2.20;;;;;;;31.46;55.79;96139.97;5099361;28;20240;-81
2022/08/05 11:31:31;;;;;;;2.70;2.50;;;;;;;31.61;54.93;96140.22;5072695;28;20283;-81
2022/08/05 11:34:08;;;;;;;2.63;2.13;;;;;;;31.40;52.46;96138.63;5093019;28;20198;-82
2022/08/05 11:36:51;;;;;;;2.65;2.28;;;;;;;31.92;50.80;96131.63;5080799;28;20209;-82
2022/08/05 11:39:58;;;;;;;2.40;2.20;;;;;;;32.36;51.43;96136.75;5079275;28;20209;-80
2022/08/05 11:42:25;;;;;;;2.38;2.20;;;;;;;32.33;51.05;96134.72;5082688;28;20204;-81